createdAt,value
2023-04-28T00:02:16.000Z,100643.97
2023-04-28T00:05:06.911Z,100638.47
2023-04-28T00:07:57.421Z,100638.84
2023-04-28T00:10:46.390Z,100633.53
2023-04-28T00:13:35.000Z,100635.56
2023-04-28T00:16:23.613Z,100629.06
2023-04-28T00:19:12.320Z,100627.44
2023-04-28T00:22:02.298Z,100632.22
2023-04-28T00:24:51.141Z,100625.63
2023-04-28T00:27:39.835Z,100613.13
2023-04-28T00:30:28.474Z,100617.25
2023-04-28T00:33:17.073Z,100614.56
2023-04-28T00:36:06.070Z,100613.94
2023-04-28T00:41:44.364Z,100604.47
2023-04-28T00:44:32.956Z,100594.25
2023-04-28T00:47:21.599Z,100590.72
2023-04-28T00:50:11.525Z,100589.03
2023-04-28T00:53:01.780Z,100578.00
2023-04-28T00:55:57.071Z,100572.59
2023-04-28T00:58:45.781Z,100573.41
2023-04-28T01:01:34.614Z,100573.78
2023-04-28T01:04:24.436Z,100568.72
2023-04-28T01:07:13.177Z,100565.63
2023-04-28T01:10:01.900Z,100568.47
2023-04-28T01:12:51.867Z,100559.06
2023-04-28T01:15:40.614Z,100561.72
2023-04-28T01:18:29.716Z,100561.09
2023-04-28T01:21:29.089Z,100558.44
2023-04-28T01:24:19.915Z,100563.13
2023-04-28T01:27:08.501Z,100549.81
2023-04-28T01:29:57.344Z,100554.13
2023-04-28T01:32:46.151Z,100549.25
2023-04-28T01:35:34.858Z,100548.06
2023-04-28T01:38:23.447Z,100533.88
2023-04-28T01:41:13.460Z,100542.25
2023-04-28T01:44:02.248Z,100538.50
2023-04-28T01:46:50.886Z,100537.50
2023-04-28T01:49:39.490Z,100533.81
2023-04-28T01:52:28.258Z,100516.56
2023-04-28T01:55:18.239Z,100522.53
2023-04-28T01:58:08.269Z,100517.94
2023-04-28T02:00:56.955Z,100515.88
2023-04-28T02:03:45.941Z,100517.56
2023-04-28T02:06:34.787Z,100513.59
2023-04-28T02:09:23.490Z,100512.59
2023-04-28T02:12:12.140Z,100512.25
2023-04-28T02:15:02.079Z,100513.88
2023-04-28T02:17:50.654Z,100513.50
2023-04-28T02:20:39.262Z,100503.22
2023-04-28T02:23:27.873Z,100503.16
2023-04-28T02:26:17.142Z,100503.16
2023-04-28T02:29:05.874Z,100503.16
2023-04-28T02:31:55.851Z,100494.72
2023-04-28T02:34:44.614Z,100492.94
2023-04-28T02:37:33.213Z,100491.09
2023-04-28T02:40:21.950Z,100491.66
2023-04-28T02:43:10.658Z,100493.69
2023-04-28T02:45:59.653Z,100490.41
2023-04-28T02:48:49.541Z,100487.09
2023-04-28T02:51:38.152Z,100483.50
2023-04-28T02:54:28.453Z,100477.06
2023-04-28T02:57:17.110Z,100478.09
2023-04-28T03:00:06.661Z,100480.75
2023-04-28T03:02:55.781Z,100476.78
2023-04-28T03:05:46.127Z,100472.69
2023-04-28T03:08:34.842Z,100476.44
2023-04-28T03:11:23.485Z,100468.78
2023-04-28T03:14:12.119Z,100469.44
2023-04-28T03:17:00.786Z,100451.78
2023-04-28T03:19:49.471Z,100447.31
2023-04-28T03:22:39.495Z,100440.13
2023-04-28T03:25:28.196Z,100428.09
2023-04-28T03:28:17.260Z,100433.13
2023-04-28T03:31:05.994Z,100428.84
2023-04-28T03:33:54.613Z,100430.53
2023-04-28T03:36:43.334Z,100421.84
2023-04-28T03:39:33.265Z,100424.78
2023-04-28T03:42:22.062Z,100426.44
2023-04-28T03:45:11.932Z,100434.44
2023-04-28T03:48:00.706Z,100437.09
2023-04-28T03:50:49.414Z,100431.31
2023-04-28T03:53:38.061Z,100432.50
2023-04-28T03:56:28.053Z,100431.78
2023-04-28T03:59:16.717Z,100428.97
2023-04-28T04:02:05.441Z,100420.91
2023-04-28T04:04:54.281Z,100425.28
2023-04-28T04:07:42.960Z,100425.66
2023-04-28T04:10:31.789Z,100413.88
2023-04-28T04:13:21.952Z,100407.28
2023-04-28T04:16:10.804Z,100402.38
2023-04-28T04:18:59.635Z,100405.25
2023-04-28T04:21:48.423Z,100401.13
2023-04-28T04:24:37.151Z,100392.56
2023-04-28T04:27:25.789Z,100383.16
2023-04-28T04:30:16.168Z,100386.19
2023-04-28T04:33:04.829Z,100386.38
2023-04-28T04:35:53.501Z,100381.84
2023-04-28T04:38:42.134Z,100385.06
2023-04-28T04:41:30.786Z,100380.69
2023-04-28T04:44:19.636Z,100376.03
2023-04-28T04:47:10.055Z,100384.16
2023-04-28T04:49:58.780Z,100377.19
2023-04-28T04:52:47.419Z,100371.84
2023-04-28T04:55:36.174Z,100373.25
2023-04-28T04:58:25.084Z,100363.34
2023-04-28T05:01:13.831Z,100365.50
2023-04-28T05:04:03.915Z,100359.78
2023-04-28T05:06:52.817Z,100365.50
2023-04-28T05:09:41.456Z,100359.22
2023-04-28T05:12:30.044Z,100358.13
2023-04-28T05:15:18.777Z,100351.16
2023-04-28T05:18:11.042Z,100345.03
2023-04-28T05:21:01.705Z,100341.13
2023-04-28T05:23:50.459Z,100343.91
2023-04-28T05:29:27.555Z,100339.69
2023-04-28T05:32:16.274Z,100332.25
2023-04-28T05:35:05.492Z,100323.66
2023-04-28T05:37:55.622Z,100331.81
2023-04-28T05:40:44.298Z,100323.03
2023-04-28T05:43:32.972Z,100330.63
2023-04-28T05:46:30.225Z,100317.53
2023-04-28T05:49:19.789Z,100317.75
2023-04-28T05:52:08.613Z,100333.06
2023-04-28T05:54:58.730Z,100326.09
2023-04-28T05:57:53.199Z,100315.25
2023-04-28T06:00:44.730Z,100313.66
2023-04-28T06:03:33.859Z,100320.19
2023-04-28T06:06:22.806Z,100317.91
2023-04-28T06:09:11.443Z,100320.59
2023-04-28T06:12:01.584Z,100315.50
2023-04-28T06:14:51.874Z,100316.31
2023-04-28T06:17:40.884Z,100317.13
2023-04-28T06:20:29.601Z,100318.03
2023-04-28T06:23:18.262Z,100314.34
2023-04-28T06:26:06.884Z,100300.38
2023-04-28T06:28:57.110Z,100308.78
2023-04-28T06:31:45.713Z,100299.13
2023-04-28T06:34:34.379Z,100297.09
2023-04-28T06:37:23.532Z,100305.72
2023-04-28T06:40:12.669Z,100300.88
2023-04-28T06:43:01.662Z,100300.41
2023-04-28T06:45:52.112Z,100295.50
2023-04-28T06:48:40.962Z,100296.56
2023-04-28T06:51:29.874Z,100296.56
2023-04-28T06:54:18.808Z,100297.19
2023-04-28T06:57:07.716Z,100293.50
2023-04-28T06:59:56.801Z,100301.25
2023-04-28T07:02:47.010Z,100284.88
2023-04-28T07:05:36.415Z,100280.31
2023-04-28T07:08:25.230Z,100285.88
2023-04-28T07:11:14.103Z,100289.00
2023-04-28T07:14:02.761Z,100280.38
2023-04-28T07:16:51.460Z,100276.47
2023-04-28T07:19:41.594Z,100274.25
2023-04-28T07:22:30.186Z,100282.44
2023-04-28T07:25:19.056Z,100277.50
2023-04-28T07:28:07.988Z,100261.50
2023-04-28T07:30:57.557Z,100263.53
2023-04-28T07:33:46.194Z,100261.09
2023-04-28T07:36:36.416Z,100255.41
2023-04-28T07:39:25.112Z,100252.97
2023-04-28T07:42:13.759Z,100252.06
2023-04-28T07:45:03.749Z,100250.06
2023-04-28T07:47:52.451Z,100243.69
2023-04-28T07:50:41.106Z,100244.31
2023-04-28T07:53:31.217Z,100240.00
2023-04-28T07:56:19.942Z,100240.63
2023-04-28T07:59:09.551Z,100237.72
2023-04-28T08:01:58.284Z,100234.88
2023-04-28T08:04:47.110Z,100228.31
2023-04-28T08:07:37.059Z,100231.06
2023-04-28T08:10:27.809Z,100229.19
2023-04-28T08:13:16.708Z,100223.84
2023-04-28T08:16:05.644Z,100220.16
2023-04-28T08:18:54.475Z,100214.47
2023-04-28T08:21:43.139Z,100207.09
2023-04-28T08:24:34.330Z,100217.31
2023-04-28T08:27:25.804Z,100228.00
2023-04-28T08:30:14.627Z,100222.28
2023-04-28T08:33:03.355Z,100228.44
2023-04-28T08:35:52.169Z,100217.34
2023-04-28T08:38:40.963Z,100210.78
2023-04-28T08:41:30.062Z,100222.69
2023-04-28T08:44:20.335Z,100207.91
2023-04-28T08:47:14.453Z,100197.25
2023-04-28T08:50:05.999Z,100196.06
2023-04-28T08:52:56.811Z,100200.16
2023-04-28T08:55:46.497Z,100196.47
2023-04-28T08:58:38.113Z,100196.47
2023-04-28T09:01:28.751Z,100186.81
2023-04-28T09:04:19.704Z,100184.56
2023-04-28T09:07:13.137Z,100188.00
2023-04-28T09:10:23.151Z,100194.38
2023-04-28T09:13:11.858Z,100189.47
2023-04-28T09:16:02.903Z,100185.34
2023-04-28T09:18:59.403Z,100184.94
2023-04-28T09:21:49.805Z,100182.94
2023-04-28T09:24:40.552Z,100173.06
2023-04-28T09:27:30.064Z,100180.44
2023-04-28T09:30:18.843Z,100175.72
2023-04-28T09:33:10.699Z,100176.97
2023-04-28T09:36:02.073Z,100178.84
2023-04-28T09:38:52.079Z,100165.34
2023-04-28T09:41:41.656Z,100163.69
2023-04-28T09:44:30.578Z,100170.25
2023-04-28T09:47:23.382Z,100162.88
2023-04-28T09:50:15.179Z,100164.50
2023-04-28T09:53:05.966Z,100160.41
2023-04-28T09:55:56.855Z,100165.34
2023-04-28T09:58:48.163Z,100163.69
2023-04-28T10:01:39.983Z,100159.97
2023-04-28T10:04:31.571Z,100154.84
2023-04-28T10:07:23.454Z,100154.63
2023-04-28T10:10:15.087Z,100156.66
2023-04-28T10:13:04.755Z,100160.31
2023-04-28T10:15:55.412Z,100159.06
2023-04-28T10:18:45.051Z,100163.78
2023-04-28T10:21:41.802Z,100176.31
2023-04-28T10:24:31.966Z,100169.28
2023-04-28T10:27:23.172Z,100164.78
2023-04-28T10:30:26.336Z,100175.19
2023-04-28T10:33:29.641Z,100179.69
2023-04-28T10:36:52.561Z,100179.88
2023-04-28T10:39:41.422Z,100168.19
2023-04-28T10:42:57.465Z,100170.06
2023-04-28T10:46:03.932Z,100173.41
2023-04-28T10:48:57.292Z,100198.44
2023-04-28T10:51:46.031Z,100190.84
2023-04-28T10:54:34.669Z,100187.78
2023-04-28T10:57:23.510Z,100188.84
2023-04-28T11:00:31.616Z,100191.06
2023-04-28T11:03:52.357Z,100197.25
2023-04-28T11:06:42.447Z,100189.47
2023-04-28T11:09:50.357Z,100187.22
2023-04-28T11:12:58.973Z,100191.16
2023-04-28T11:16:04.529Z,100189.25
2023-04-28T11:19:06.910Z,100200.13
2023-04-28T11:21:57.921Z,100200.31
2023-04-28T11:24:58.399Z,100198.06
2023-04-28T11:27:47.240Z,100198.69
2023-04-28T11:30:36.088Z,100202.81
2023-04-28T11:33:26.328Z,100198.09
2023-04-28T11:36:38.335Z,100204.28
2023-04-28T11:39:29.770Z,100196.88
2023-04-28T11:42:18.528Z,100193.97
2023-04-28T11:45:09.305Z,100197.06
2023-04-28T11:48:00.934Z,100190.91
2023-04-28T11:50:51.046Z,100197.88
2023-04-28T11:53:43.977Z,100198.50
2023-04-28T11:56:33.207Z,100197.06
2023-04-28T11:59:26.861Z,100192.59
2023-04-28T12:02:17.103Z,100189.13
2023-04-28T12:05:07.983Z,100189.13
2023-04-28T12:07:58.121Z,100188.31
2023-04-28T12:11:10.855Z,100182.75
2023-04-28T12:14:10.589Z,100186.28
2023-04-28T12:16:59.583Z,100187.06
2023-04-28T12:19:48.441Z,100186.25
2023-04-28T12:22:46.818Z,100177.22
2023-04-28T12:25:45.668Z,100175.16
2023-04-28T12:28:41.689Z,100168.63
2023-04-28T12:31:30.312Z,100170.66
2023-04-28T12:34:19.030Z,100162.06
2023-04-28T12:37:08.407Z,100159.16
2023-04-28T12:40:00.431Z,100160.81
2023-04-28T12:42:50.846Z,100161.22
2023-04-28T12:45:39.788Z,100160.19
2023-04-28T12:48:29.292Z,100156.91
2023-04-28T12:51:17.921Z,100168.63
2023-04-28T12:54:09.741Z,100167.19
2023-04-28T12:57:02.089Z,100159.59
2023-04-28T12:59:52.796Z,100167.59
2023-04-28T13:02:41.672Z,100156.06
2023-04-28T13:05:30.604Z,100160.00
2023-04-28T13:08:19.283Z,100152.59
2023-04-28T13:11:19.667Z,100149.69
2023-04-28T13:14:13.621Z,100145.63
2023-04-28T13:17:03.865Z,100138.63
2023-04-28T13:19:52.553Z,100138.22
2023-04-28T13:22:42.004Z,100132.47
2023-04-28T13:25:31.410Z,100133.31
2023-04-28T13:28:20.106Z,100136.16
2023-04-28T13:31:08.928Z,100129.59
2023-04-28T13:34:01.981Z,100134.09
2023-04-28T13:36:51.036Z,100126.72
2023-04-28T13:39:39.913Z,100118.09
2023-04-28T13:42:28.588Z,100113.16
2023-04-28T13:45:17.826Z,100103.53
2023-04-28T13:48:07.559Z,100100.03
2023-04-28T13:50:57.579Z,100101.66
2023-04-28T13:53:46.674Z,100091.41
2023-04-28T13:56:36.425Z,100097.56
2023-04-28T13:59:25.249Z,100094.06
2023-04-28T14:02:14.091Z,100095.94
2023-04-28T14:05:02.786Z,100095.94
2023-04-28T14:07:53.128Z,100084.44
2023-04-28T14:10:41.852Z,100090.59
2023-04-28T14:13:30.705Z,100080.31
2023-04-28T14:16:19.434Z,100059.38
2023-04-28T14:19:08.797Z,100069.03
2023-04-28T14:21:59.013Z,100059.81
2023-04-28T14:24:49.458Z,100064.72
2023-04-28T14:27:38.318Z,100054.47
2023-04-28T14:30:27.379Z,100060.63
2023-04-28T14:33:16.166Z,100051.38
2023-04-28T14:36:05.133Z,100055.28
2023-04-28T14:38:53.826Z,100050.78
2023-04-28T14:41:43.755Z,100049.13
2023-04-28T14:44:32.361Z,100052.84
2023-04-28T14:47:22.320Z,100044.84
2023-04-28T14:50:13.869Z,100041.56
2023-04-28T14:53:07.510Z,100045.25
2023-04-28T14:56:02.057Z,100040.72
2023-04-28T14:59:02.767Z,100038.47
2023-04-28T15:01:51.751Z,100031.06
2023-04-28T15:04:40.885Z,100030.03
2023-04-28T15:07:31.640Z,100027.19
2023-04-28T15:10:20.591Z,100024.50
2023-04-28T15:13:09.254Z,100017.91
2023-04-28T15:15:59.530Z,100020.81
2023-04-28T15:18:48.486Z,100018.34
2023-04-28T15:21:37.180Z,100026.56
2023-04-28T15:24:25.968Z,100021.84
2023-04-28T15:27:14.593Z,100006.44
2023-04-28T15:30:03.382Z,100010.31
2023-04-28T15:32:53.654Z,100001.50
2023-04-28T15:35:42.463Z,100010.31
2023-04-28T15:38:31.998Z,99994.13
2023-04-28T15:41:20.955Z,99995.34
2023-04-28T15:44:10.606Z,99989.22
2023-04-28T15:46:59.403Z,99987.56
2023-04-28T15:49:50.282Z,99990.44
2023-04-28T15:52:45.871Z,99988.34
2023-04-28T15:55:34.961Z,99975.63
2023-04-28T15:58:23.940Z,99974.38
2023-04-28T16:01:12.623Z,99983.00
2023-04-28T16:04:01.816Z,99974.19
2023-04-28T16:06:52.966Z,99978.69
2023-04-28T16:09:41.564Z,99977.25
2023-04-28T16:12:31.043Z,99973.53
2023-04-28T16:15:19.883Z,99975.78
2023-04-28T16:18:08.742Z,99971.34
2023-04-28T16:20:57.539Z,99968.88
2023-04-28T16:23:47.779Z,99971.38
2023-04-28T16:26:36.622Z,99961.91
2023-04-28T16:29:25.346Z,99975.28
2023-04-28T16:32:14.157Z,99966.63
2023-04-28T16:35:03.107Z,99962.16
2023-04-28T16:37:51.875Z,99955.97
2023-04-28T16:40:41.953Z,99954.78
2023-04-28T16:43:32.126Z,99953.47
2023-04-28T16:46:21.063Z,99939.66
2023-04-28T16:49:10.150Z,99943.53
2023-04-28T16:52:00.197Z,99936.34
2023-04-28T16:54:48.897Z,99938.38
2023-04-28T16:57:39.089Z,99939.63
2023-04-28T17:00:27.839Z,99925.00
2023-04-28T17:03:16.716Z,99932.56
2023-04-28T17:06:05.976Z,99930.56
2023-04-28T17:08:54.575Z,99932.91
2023-04-28T17:11:43.409Z,99926.84
2023-04-28T17:14:33.434Z,99928.41
2023-04-28T17:17:22.407Z,99925.94
2023-04-28T17:20:16.575Z,99929.22
2023-04-28T17:23:05.448Z,99916.63
2023-04-28T17:25:54.164Z,99919.16
2023-04-28T17:28:44.032Z,99924.28
2023-04-28T17:31:34.926Z,99927.13
2023-04-28T17:34:25.217Z,99919.38
2023-04-28T17:37:13.873Z,99923.28
2023-04-28T17:40:04.205Z,99917.78
2023-04-28T17:42:53.188Z,99914.06
2023-04-28T17:45:41.861Z,99907.81
2023-04-28T17:48:32.091Z,99902.00
2023-04-28T17:51:20.991Z,99901.41
2023-04-28T17:54:09.758Z,99903.47
2023-04-28T17:56:58.464Z,99913.38
2023-04-28T17:59:51.262Z,99915.16
2023-04-28T18:02:40.107Z,99912.50
2023-04-28T18:05:31.337Z,99917.84
2023-04-28T18:08:19.961Z,99917.69
2023-04-28T18:11:09.993Z,99920.75
2023-04-28T18:13:58.903Z,99916.19
2023-04-28T18:16:47.936Z,99920.31
2023-04-28T18:19:37.034Z,99915.34
2023-04-28T18:22:27.886Z,99917.25
2023-04-28T18:25:19.147Z,99912.44
2023-04-28T18:28:10.553Z,99918.28
2023-04-28T18:30:58.109Z,99910.09
2023-04-28T18:33:59.903Z,99916.56
2023-04-28T18:36:51.817Z,99915.56
2023-04-28T18:39:47.726Z,99919.38
2023-04-28T18:42:39.372Z,99923.25
2023-04-28T18:45:35.820Z,99916.69
2023-04-28T18:48:26.112Z,99907.59
2023-04-28T18:51:18.594Z,99916.63
2023-04-28T18:54:16.574Z,99923.19
2023-04-28T18:57:10.118Z,99925.66
2023-04-28T18:59:59.417Z,99932.63
2023-04-28T19:02:48.275Z,99931.59
2023-04-28T19:05:37.082Z,99927.34
2023-04-28T19:08:25.689Z,99935.94
2023-04-28T19:11:14.368Z,99935.94
2023-04-28T19:14:04.384Z,99929.09
2023-04-28T19:16:53.151Z,99931.13
2023-04-28T19:19:41.854Z,99933.41
2023-04-28T19:22:32.588Z,99935.50
2023-04-28T19:25:21.414Z,99934.00
2023-04-28T19:28:11.674Z,99932.25
2023-04-28T19:31:01.838Z,99933.03
2023-04-28T19:33:50.685Z,99935.81
2023-04-28T19:36:39.279Z,99929.88
2023-04-28T19:39:29.324Z,99926.59
2023-04-28T19:42:18.435Z,99923.25
2023-04-28T19:45:09.323Z,99926.59
2023-04-28T19:47:59.533Z,99919.97
2023-04-28T19:50:48.192Z,99917.81
2023-04-28T19:53:40.486Z,99924.00
2023-04-28T19:56:29.180Z,99916.19
2023-04-28T19:59:17.839Z,99920.09
2023-04-28T20:02:08.234Z,99922.19
2023-04-28T20:04:58.672Z,99917.22
2023-04-28T20:07:47.675Z,99909.19
2023-04-28T20:10:36.280Z,99904.63
2023-04-28T20:13:27.279Z,99908.78
2023-04-28T20:16:16.991Z,99908.88
2023-04-28T20:19:06.125Z,99913.38
2023-04-28T20:21:56.607Z,99909.97
2023-04-28T20:24:45.443Z,99904.75
2023-04-28T20:27:35.153Z,99906.00
2023-04-28T20:30:24.152Z,99896.19
2023-04-28T20:33:13.377Z,99897.25
2023-04-28T20:36:02.094Z,99895.69
2023-04-28T20:38:52.347Z,99885.22
2023-04-28T20:41:41.752Z,99884.53
2023-04-28T20:44:30.637Z,99879.66
2023-04-28T20:47:19.353Z,99865.91
2023-04-28T20:50:10.866Z,99866.41
2023-04-28T20:52:59.502Z,99863.25
2023-04-28T20:55:49.702Z,99869.13
2023-04-28T20:58:38.516Z,99870.47
2023-04-28T21:01:32.380Z,99870.06
2023-04-28T21:04:21.104Z,99876.22
2023-04-28T21:07:09.788Z,99879.03
2023-04-28T21:10:00.975Z,99875.41
2023-04-28T21:12:52.257Z,99873.69
2023-04-28T21:15:41.898Z,99884.09
2023-04-28T21:18:30.785Z,99874.75
2023-04-28T21:21:19.444Z,99865.75
2023-04-28T21:24:09.301Z,99867.56
2023-04-28T21:26:58.313Z,99867.50
2023-04-28T21:29:48.606Z,99873.75
2023-04-28T21:32:37.430Z,99872.34
2023-04-28T21:35:26.170Z,99865.56
2023-04-28T21:38:15.561Z,99862.91
2023-04-28T21:41:04.344Z,99856.78
2023-04-28T21:43:53.018Z,99865.66
2023-04-28T21:46:43.056Z,99865.22
2023-04-28T21:49:31.977Z,99865.56
2023-04-28T21:52:20.774Z,99860.72
2023-04-28T21:55:10.281Z,99859.50
2023-04-28T21:58:00.416Z,99865.22
2023-04-28T22:00:49.845Z,99859.06
2023-04-28T22:03:40.538Z,99864.38
2023-04-28T22:06:29.353Z,99852.63
2023-04-28T22:09:18.155Z,99853.50
2023-04-28T22:12:08.774Z,99850.06
2023-04-28T22:14:57.405Z,99835.22
2023-04-28T22:17:46.060Z,99835.06
2023-04-28T22:20:36.734Z,99835.91
2023-04-28T22:23:25.537Z,99833.09
2023-04-28T22:26:14.928Z,99826.44
2023-04-28T22:29:05.934Z,99827.25
2023-04-28T22:31:54.596Z,99828.13
2023-04-28T22:34:43.308Z,99843.00
2023-04-28T22:37:34.093Z,99855.16
2023-04-28T22:40:22.991Z,99850.09
2023-04-28T22:43:11.854Z,99841.78
2023-04-28T22:46:00.514Z,99851.13
2023-04-28T22:48:49.818Z,99851.13
2023-04-28T22:51:38.523Z,99837.75
2023-04-28T22:54:28.551Z,99841.09
2023-04-28T22:57:17.280Z,99844.53
2023-04-28T23:00:06.967Z,99838.50
2023-04-28T23:02:55.818Z,99840.63
2023-04-28T23:05:44.501Z,99837.75
2023-04-28T23:08:35.586Z,99830.75
2023-04-28T23:11:27.294Z,99826.69
2023-04-28T23:14:15.980Z,99820.13
2023-04-28T23:17:04.570Z,99818.06
2023-04-28T23:19:53.312Z,99813.16
2023-04-28T23:22:41.962Z,99813.16
2023-04-28T23:25:30.593Z,99808.91
2023-04-28T23:28:20.702Z,99795.97
2023-04-28T23:31:09.340Z,99796.78
2023-04-28T23:33:58.633Z,99786.53
2023-04-28T23:36:47.362Z,99787.56
2023-04-28T23:39:36.148Z,99784.06
2023-04-28T23:42:25.191Z,99780.00
2023-04-28T23:45:15.914Z,99784.50
2023-04-28T23:48:04.582Z,99798.06
2023-04-28T23:50:53.543Z,99801.75
2023-04-28T23:53:42.158Z,99801.81
2023-04-28T23:56:31.381Z,99801.00
2023-04-28T23:59:19.978Z,99808.38
